sensor_id;sensor_type;location;lat;lon;timestamp;temperature;humidity
30572;DHT22;17348;50.948;10.696;2022-11-12T00:00:39;5.10;99.90
30572;DHT22;17348;50.948;10.696;2022-11-12T00:03:41;5.10;99.90
30572;DHT22;17348;50.948;10.696;2022-11-12T00:06:43;5.10;99.90
30572;DHT22;17348;50.948;10.696;2022-11-12T00:09:47;5.10;99.90
30572;DHT22;17348;50.948;10.696;2022-11-12T00:12:50;5.10;99.90
30572;DHT22;17348;50.948;10.696;2022-11-12T00:15:52;5.10;99.90
30572;DHT22;17348;50.948;10.696;2022-11-12T00:18:54;5.00;99.90
30572;DHT22;17348;50.948;10.696;2022-11-12T00:21:56;5.00;99.90
30572;DHT22;17348;50.948;10.696;2022-11-12T00:25:00;5.10;99.90
30572;DHT22;17348;50.948;10.696;2022-11-12T00:28:04;5.00;99.90
30572;DHT22;17348;50.948;10.696;2022-11-12T00:31:08;5.00;99.90
30572;DHT22;17348;50.948;10.696;2022-11-12T00:34:11;5.10;99.90
30572;DHT22;17348;50.948;10.696;2022-11-12T00:37:13;5.10;99.90
30572;DHT22;17348;50.948;10.696;2022-11-12T00:40:18;5.10;99.90
30572;DHT22;17348;50.948;10.696;2022-11-12T00:43:20;5.10;99.90
30572;DHT22;17348;50.948;10.696;2022-11-12T00:46:24;5.20;99.90
30572;DHT22;17348;50.948;10.696;2022-11-12T00:49:27;5.10;99.90
30572;DHT22;17348;50.948;10.696;2022-11-12T00:52:29;5.00;99.90
30572;DHT22;17348;50.948;10.696;2022-11-12T00:55:33;5.00;99.90
30572;DHT22;17348;50.948;10.696;2022-11-12T00:58:35;5.00;99.90
30572;DHT22;17348;50.948;10.696;2022-11-12T01:01:38;5.00;99.90
30572;DHT22;17348;50.948;10.696;2022-11-12T01:04:40;4.90;99.90
30572;DHT22;17348;50.948;10.696;2022-11-12T01:07:43;4.90;99.90
30572;DHT22;17348;50.948;10.696;2022-11-12T01:10:46;4.90;99.90
30572;DHT22;17348;50.948;10.696;2022-11-12T01:13:53;4.80;99.90
30572;DHT22;17348;50.948;10.696;2022-11-12T01:16:55;4.80;99.90
30572;DHT22;17348;50.948;10.696;2022-11-12T01:19:58;4.80;99.90
30572;DHT22;17348;50.948;10.696;2022-11-12T01:23:00;4.70;99.90
30572;DHT22;17348;50.948;10.696;2022-11-12T01:26:05;4.70;99.90
30572;DHT22;17348;50.948;10.696;2022-11-12T01:29:08;4.70;99.90
30572;DHT22;17348;50.948;10.696;2022-11-12T01:32:10;4.70;99.90
30572;DHT22;17348;50.948;10.696;2022-11-12T01:35:12;4.70;99.90
30572;DHT22;17348;50.948;10.696;2022-11-12T01:38:15;4.70;99.90
30572;DHT22;17348;50.948;10.696;2022-11-12T01:41:21;4.70;99.90
30572;DHT22;17348;50.948;10.696;2022-11-12T01:44:25;4.70;99.90
30572;DHT22;17348;50.948;10.696;2022-11-12T01:47:31;4.60;99.90
30572;DHT22;17348;50.948;10.696;2022-11-12T01:50:37;4.60;99.90
30572;DHT22;17348;50.948;10.696;2022-11-12T01:53:44;4.60;99.90
30572;DHT22;17348;50.948;10.696;2022-11-12T01:56:50;4.60;99.90
30572;DHT22;17348;50.948;10.696;2022-11-12T01:59:56;4.60;99.90
30572;DHT22;17348;50.948;10.696;2022-11-12T02:03:01;4.60;99.90
30572;DHT22;17348;50.948;10.696;2022-11-12T02:06:07;4.60;99.90
30572;DHT22;17348;50.948;10.696;2022-11-12T02:09:10;4.60;99.90
30572;DHT22;17348;50.948;10.696;2022-11-12T02:12:15;4.60;99.90
30572;DHT22;17348;50.948;10.696;2022-11-12T02:15:31;4.60;99.90
30572;DHT22;17348;50.948;10.696;2022-11-12T02:18:34;4.60;99.90
30572;DHT22;17348;50.948;10.696;2022-11-12T02:21:38;4.60;99.90
30572;DHT22;17348;50.948;10.696;2022-11-12T02:24:40;4.60;99.90
30572;DHT22;17348;50.948;10.696;2022-11-12T02:27:43;4.60;99.90
30572;DHT22;17348;50.948;10.696;2022-11-12T02:30:47;4.60;99.90
30572;DHT22;17348;50.948;10.696;2022-11-12T02:33:50;4.50;99.90
30572;DHT22;17348;50.948;10.696;2022-11-12T02:36:54;4.50;99.90
30572;DHT22;17348;50.948;10.696;2022-11-12T02:39:56;4.50;99.90
30572;DHT22;17348;50.948;10.696;2022-11-12T02:42:58;4.50;99.90
30572;DHT22;17348;50.948;10.696;2022-11-12T02:46:01;4.50;99.90
30572;DHT22;17348;50.948;10.696;2022-11-12T02:49:03;4.50;99.90
30572;DHT22;17348;50.948;10.696;2022-11-12T02:52:07;4.50;99.90
30572;DHT22;17348;50.948;10.696;2022-11-12T02:55:11;4.50;99.90
30572;DHT22;17348;50.948;10.696;2022-11-12T02:58:13;4.40;99.90
30572;DHT22;17348;50.948;10.696;2022-11-12T03:01:16;4.40;99.90
30572;DHT22;17348;50.948;10.696;2022-11-12T03:04:18;4.40;99.90
30572;DHT22;17348;50.948;10.696;2022-11-12T03:07:22;4.30;99.90
30572;DHT22;17348;50.948;10.696;2022-11-12T03:10:24;4.30;99.90
30572;DHT22;17348;50.948;10.696;2022-11-12T03:13:27;4.30;99.90
30572;DHT22;17348;50.948;10.696;2022-11-12T03:16:29;4.30;99.90
30572;DHT22;17348;50.948;10.696;2022-11-12T03:19:31;4.20;99.90
30572;DHT22;17348;50.948;10.696;2022-11-12T03:22:35;4.10;99.90
30572;DHT22;17348;50.948;10.696;2022-11-12T03:25:38;4.10;99.90
30572;DHT22;17348;50.948;10.696;2022-11-12T03:28:40;4.10;99.90
30572;DHT22;17348;50.948;10.696;2022-11-12T03:31:42;4.00;99.90
30572;DHT22;17348;50.948;10.696;2022-11-12T03:34:44;3.90;99.90
30572;DHT22;17348;50.948;10.696;2022-11-12T03:37:48;4.00;99.90
30572;DHT22;17348;50.948;10.696;2022-11-12T03:40:50;3.90;99.90
30572;DHT22;17348;50.948;10.696;2022-11-12T03:43:53;3.90;99.90
30572;DHT22;17348;50.948;10.696;2022-11-12T03:46:56;3.90;99.90
30572;DHT22;17348;50.948;10.696;2022-11-12T03:49:58;3.90;99.90
30572;DHT22;17348;50.948;10.696;2022-11-12T03:53:03;3.90;99.90
30572;DHT22;17348;50.948;10.696;2022-11-12T03:56:05;4.00;99.90
30572;DHT22;17348;50.948;10.696;2022-11-12T03:59:08;4.00;99.90
30572;DHT22;17348;50.948;10.696;2022-11-12T04:02:10;4.00;99.90
30572;DHT22;17348;50.948;10.696;2022-11-12T04:05:15;4.00;99.90
30572;DHT22;17348;50.948;10.696;2022-11-12T04:08:36;4.00;99.90
30572;DHT22;17348;50.948;10.696;2022-11-12T04:11:39;4.00;99.90
30572;DHT22;17348;50.948;10.696;2022-11-12T04:14:41;4.00;99.90
30572;DHT22;17348;50.948;10.696;2022-11-12T04:17:43;4.00;99.90
30572;DHT22;17348;50.948;10.696;2022-11-12T04:21:03;3.90;99.90
30572;DHT22;17348;50.948;10.696;2022-11-12T04:24:26;3.80;99.90
30572;DHT22;17348;50.948;10.696;2022-11-12T04:27:46;3.80;99.90
30572;DHT22;17348;50.948;10.696;2022-11-12T04:30:49;3.80;99.90
30572;DHT22;17348;50.948;10.696;2022-11-12T04:33:50;3.70;99.90
30572;DHT22;17348;50.948;10.696;2022-11-12T04:36:52;3.70;99.90
30572;DHT22;17348;50.948;10.696;2022-11-12T04:39:56;3.60;99.90
30572;DHT22;17348;50.948;10.696;2022-11-12T04:43:19;3.60;99.90
30572;DHT22;17348;50.948;10.696;2022-11-12T04:46:39;3.70;99.90
30572;DHT22;17348;50.948;10.696;2022-11-12T04:49:41;3.60;99.90
30572;DHT22;17348;50.948;10.696;2022-11-12T04:52:44;3.60;99.90
30572;DHT22;17348;50.948;10.696;2022-11-12T04:55:50;3.60;99.90
30572;DHT22;17348;50.948;10.696;2022-11-12T04:58:52;3.60;99.90
30572;DHT22;17348;50.948;10.696;2022-11-12T05:01:54;3.60;99.90
30572;DHT22;17348;50.948;10.696;2022-11-12T05:04:57;3.60;99.90
30572;DHT22;17348;50.948;10.696;2022-11-12T05:07:59;3.60;99.90
30572;DHT22;17348;50.948;10.696;2022-11-12T05:11:03;3.60;99.90
30572;DHT22;17348;50.948;10.696;2022-11-12T05:14:05;3.60;99.90
30572;DHT22;17348;50.948;10.696;2022-11-12T05:17:08;3.60;99.90
30572;DHT22;17348;50.948;10.696;2022-11-12T05:20:11;3.60;99.90
30572;DHT22;17348;50.948;10.696;2022-11-12T05:23:13;3.60;99.90
30572;DHT22;17348;50.948;10.696;2022-11-12T05:26:17;3.60;99.90
30572;DHT22;17348;50.948;10.696;2022-11-12T05:29:19;3.60;99.90
30572;DHT22;17348;50.948;10.696;2022-11-12T05:32:21;3.60;99.90
30572;DHT22;17348;50.948;10.696;2022-11-12T05:35:24;3.60;99.90
30572;DHT22;17348;50.948;10.696;2022-11-12T05:38:26;3.60;99.90
30572;DHT22;17348;50.948;10.696;2022-11-12T05:41:30;3.60;99.90
30572;DHT22;17348;50.948;10.696;2022-11-12T05:44:33;3.60;99.90
30572;DHT22;17348;50.948;10.696;2022-11-12T05:47:35;3.60;99.90
30572;DHT22;17348;50.948;10.696;2022-11-12T05:50:37;3.60;99.90
30572;DHT22;17348;50.948;10.696;2022-11-12T05:53:40;3.60;99.90
30572;DHT22;17348;50.948;10.696;2022-11-12T05:56:43;3.60;99.90
30572;DHT22;17348;50.948;10.696;2022-11-12T05:59:46;3.60;99.90
30572;DHT22;17348;50.948;10.696;2022-11-12T06:02:48;3.60;99.90
30572;DHT22;17348;50.948;10.696;2022-11-12T06:05:51;3.50;99.90
30572;DHT22;17348;50.948;10.696;2022-11-12T06:08:53;3.50;99.90
30572;DHT22;17348;50.948;10.696;2022-11-12T06:11:57;3.50;99.90
30572;DHT22;17348;50.948;10.696;2022-11-12T06:14:59;3.50;99.90
30572;DHT22;17348;50.948;10.696;2022-11-12T06:18:01;3.50;99.90
30572;DHT22;17348;50.948;10.696;2022-11-12T06:21:05;3.50;99.90
30572;DHT22;17348;50.948;10.696;2022-11-12T06:24:27;3.50;99.90
30572;DHT22;17348;50.948;10.696;2022-11-12T06:27:31;3.60;99.90
30572;DHT22;17348;50.948;10.696;2022-11-12T06:30:34;3.60;99.90
